sensor_id;sensor_type;location;lat;lon;timestamp;temperature;humidity
27803;DHT22;15182;48.174;11.562;2024-01-30T00:02:17;8.90;82.70
27803;DHT22;15182;48.174;11.562;2024-01-30T00:04:44;8.90;82.70
27803;DHT22;15182;48.174;11.562;2024-01-30T00:07:14;8.90;83.60
27803;DHT22;15182;48.174;11.562;2024-01-30T00:09:41;8.90;82.80
27803;DHT22;15182;48.174;11.562;2024-01-30T00:12:09;8.80;82.80
27803;DHT22;15182;48.174;11.562;2024-01-30T00:14:37;8.80;83.60
27803;DHT22;15182;48.174;11.562;2024-01-30T00:17:05;8.80;83.70
27803;DHT22;15182;48.174;11.562;2024-01-30T00:19:32;8.80;82.90
27803;DHT22;15182;48.174;11.562;2024-01-30T00:22:00;8.70;82.90
27803;DHT22;15182;48.174;11.562;2024-01-30T00:24:29;8.80;83.10
27803;DHT22;15182;48.174;11.562;2024-01-30T00:26:57;8.70;83.10
27803;DHT22;15182;48.174;11.562;2024-01-30T00:29:25;8.70;83.10
27803;DHT22;15182;48.174;11.562;2024-01-30T00:31:56;8.70;83.10
27803;DHT22;15182;48.174;11.562;2024-01-30T00:34:24;8.70;83.20
27803;DHT22;15182;48.174;11.562;2024-01-30T00:36:52;8.60;83.10
27803;DHT22;15182;48.174;11.562;2024-01-30T00:39:20;8.70;83.30
27803;DHT22;15182;48.174;11.562;2024-01-30T00:41:49;8.60;83.30
27803;DHT22;15182;48.174;11.562;2024-01-30T00:44:16;8.60;83.40
27803;DHT22;15182;48.174;11.562;2024-01-30T00:46:44;8.60;83.30
27803;DHT22;15182;48.174;11.562;2024-01-30T00:49:12;8.60;83.40
27803;DHT22;15182;48.174;11.562;2024-01-30T00:51:40;8.60;83.40
27803;DHT22;15182;48.174;11.562;2024-01-30T00:54:08;8.60;83.40
27803;DHT22;15182;48.174;11.562;2024-01-30T00:56:35;8.50;83.40
27803;DHT22;15182;48.174;11.562;2024-01-30T00:59:05;8.50;84.20
27803;DHT22;15182;48.174;11.562;2024-01-30T01:01:33;8.50;83.50
27803;DHT22;15182;48.174;11.562;2024-01-30T01:04:00;8.50;83.50
27803;DHT22;15182;48.174;11.562;2024-01-30T01:06:28;8.50;83.50
27803;DHT22;15182;48.174;11.562;2024-01-30T01:08:56;8.50;83.50
27803;DHT22;15182;48.174;11.562;2024-01-30T01:11:24;8.50;83.50
27803;DHT22;15182;48.174;11.562;2024-01-30T01:13:51;8.40;83.50
27803;DHT22;15182;48.174;11.562;2024-01-30T01:16:21;8.40;83.50
27803;DHT22;15182;48.174;11.562;2024-01-30T01:18:48;8.40;83.60
27803;DHT22;15182;48.174;11.562;2024-01-30T01:21:16;8.40;83.60
27803;DHT22;15182;48.174;11.562;2024-01-30T01:23:44;8.40;83.60
27803;DHT22;15182;48.174;11.562;2024-01-30T01:26:12;8.40;83.60
27803;DHT22;15182;48.174;11.562;2024-01-30T01:28:40;8.40;83.60
27803;DHT22;15182;48.174;11.562;2024-01-30T01:31:09;8.40;83.70
27803;DHT22;15182;48.174;11.562;2024-01-30T01:33:38;8.30;83.70
27803;DHT22;15182;48.174;11.562;2024-01-30T01:36:06;8.30;83.80
27803;DHT22;15182;48.174;11.562;2024-01-30T01:38:34;8.30;83.80
27803;DHT22;15182;48.174;11.562;2024-01-30T01:41:01;8.30;83.80
27803;DHT22;15182;48.174;11.562;2024-01-30T01:43:29;8.30;83.80
27803;DHT22;15182;48.174;11.562;2024-01-30T01:45:57;8.30;83.80
27803;DHT22;15182;48.174;11.562;2024-01-30T01:48:26;8.30;83.80
27803;DHT22;15182;48.174;11.562;2024-01-30T01:50:55;8.30;83.80
27803;DHT22;15182;48.174;11.562;2024-01-30T01:53:23;8.20;83.80
27803;DHT22;15182;48.174;11.562;2024-01-30T01:55:51;8.20;83.80
27803;DHT22;15182;48.174;11.562;2024-01-30T01:58:20;8.20;84.60
27803;DHT22;15182;48.174;11.562;2024-01-30T02:00:48;8.20;83.80
27803;DHT22;15182;48.174;11.562;2024-01-30T02:03:18;8.20;83.90
27803;DHT22;15182;48.174;11.562;2024-01-30T02:05:47;8.20;83.90
27803;DHT22;15182;48.174;11.562;2024-01-30T02:08:17;8.20;84.00
27803;DHT22;15182;48.174;11.562;2024-01-30T02:10:45;8.10;84.00
27803;DHT22;15182;48.174;11.562;2024-01-30T02:13:13;8.10;83.90
27803;DHT22;15182;48.174;11.562;2024-01-30T02:15:40;8.10;84.00
27803;DHT22;15182;48.174;11.562;2024-01-30T02:18:08;8.10;84.80
27803;DHT22;15182;48.174;11.562;2024-01-30T02:20:37;8.10;84.10
27803;DHT22;15182;48.174;11.562;2024-01-30T02:23:08;8.00;85.00
27803;DHT22;15182;48.174;11.562;2024-01-30T02:25:39;8.00;84.20
27803;DHT22;15182;48.174;11.562;2024-01-30T02:28:10;8.00;84.20
27803;DHT22;15182;48.174;11.562;2024-01-30T02:30:39;8.10;84.60
27803;DHT22;15182;48.174;11.562;2024-01-30T02:33:07;8.10;84.20
27803;DHT22;15182;48.174;11.562;2024-01-30T02:35:34;8.00;84.20
27803;DHT22;15182;48.174;11.562;2024-01-30T02:38:02;8.00;84.20
27803;DHT22;15182;48.174;11.562;2024-01-30T02:40:32;8.00;84.30
27803;DHT22;15182;48.174;11.562;2024-01-30T02:43:01;8.00;84.40
27803;DHT22;15182;48.174;11.562;2024-01-30T02:45:29;8.00;85.20
27803;DHT22;15182;48.174;11.562;2024-01-30T02:47:57;8.00;84.40
27803;DHT22;15182;48.174;11.562;2024-01-30T02:50:25;8.00;84.40
27803;DHT22;15182;48.174;11.562;2024-01-30T02:52:53;8.00;84.40
27803;DHT22;15182;48.174;11.562;2024-01-30T02:55:20;7.90;84.30
27803;DHT22;15182;48.174;11.562;2024-01-30T02:57:49;7.90;84.40
27803;DHT22;15182;48.174;11.562;2024-01-30T03:00:19;7.90;84.40
27803;DHT22;15182;48.174;11.562;2024-01-30T03:02:47;7.90;84.50
27803;DHT22;15182;48.174;11.562;2024-01-30T03:05:14;7.90;84.50
27803;DHT22;15182;48.174;11.562;2024-01-30T03:07:42;7.90;85.40
27803;DHT22;15182;48.174;11.562;2024-01-30T03:10:10;7.90;84.50
27803;DHT22;15182;48.174;11.562;2024-01-30T03:12:38;7.90;84.60
27803;DHT22;15182;48.174;11.562;2024-01-30T03:15:08;7.90;84.60
27803;DHT22;15182;48.174;11.562;2024-01-30T03:17:37;7.90;84.60
27803;DHT22;15182;48.174;11.562;2024-01-30T03:20:05;7.90;84.60
27803;DHT22;15182;48.174;11.562;2024-01-30T03:22:34;7.80;84.60
27803;DHT22;15182;48.174;11.562;2024-01-30T03:25:02;7.80;84.60
27803;DHT22;15182;48.174;11.562;2024-01-30T03:27:30;7.80;84.60
27803;DHT22;15182;48.174;11.562;2024-01-30T03:29:58;7.80;84.60
27803;DHT22;15182;48.174;11.562;2024-01-30T03:32:27;7.80;85.50
27803;DHT22;15182;48.174;11.562;2024-01-30T03:34:55;7.80;84.80
27803;DHT22;15182;48.174;11.562;2024-01-30T03:37:22;7.70;84.60
27803;DHT22;15182;48.174;11.562;2024-01-30T03:39:50;7.70;84.70
27803;DHT22;15182;48.174;11.562;2024-01-30T03:42:18;7.70;84.70
27803;DHT22;15182;48.174;11.562;2024-01-30T03:44:46;7.80;84.80
27803;DHT22;15182;48.174;11.562;2024-01-30T03:47:13;7.70;84.80
27803;DHT22;15182;48.174;11.562;2024-01-30T03:49:43;7.70;85.70
27803;DHT22;15182;48.174;11.562;2024-01-30T03:52:10;7.70;84.90
27803;DHT22;15182;48.174;11.562;2024-01-30T03:54:38;7.70;84.90
27803;DHT22;15182;48.174;11.562;2024-01-30T03:57:06;7.70;84.90
27803;DHT22;15182;48.174;11.562;2024-01-30T03:59:34;7.70;84.90
27803;DHT22;15182;48.174;11.562;2024-01-30T04:02:02;7.60;85.70
27803;DHT22;15182;48.174;11.562;2024-01-30T04:04:30;7.70;85.00
27803;DHT22;15182;48.174;11.562;2024-01-30T04:06:59;7.60;84.90
27803;DHT22;15182;48.174;11.562;2024-01-30T04:09:27;7.60;85.80
27803;DHT22;15182;48.174;11.562;2024-01-30T04:11:55;7.60;85.00
27803;DHT22;15182;48.174;11.562;2024-01-30T04:14:23;7.60;85.00
27803;DHT22;15182;48.174;11.562;2024-01-30T04:16:51;7.60;85.00
27803;DHT22;15182;48.174;11.562;2024-01-30T04:19:18;7.60;85.10
27803;DHT22;15182;48.174;11.562;2024-01-30T04:21:46;7.60;85.20
27803;DHT22;15182;48.174;11.562;2024-01-30T04:24:15;7.60;85.20
27803;DHT22;15182;48.174;11.562;2024-01-30T04:26:44;7.60;85.20
27803;DHT22;15182;48.174;11.562;2024-01-30T04:29:12;7.60;86.00
27803;DHT22;15182;48.174;11.562;2024-01-30T04:31:40;7.60;85.10
27803;DHT22;15182;48.174;11.562;2024-01-30T04:34:08;7.60;85.20
27803;DHT22;15182;48.174;11.562;2024-01-30T04:36:36;7.60;86.00
27803;DHT22;15182;48.174;11.562;2024-01-30T04:39:03;7.60;86.10
27803;DHT22;15182;48.174;11.562;2024-01-30T04:41:32;7.60;85.20
27803;DHT22;15182;48.174;11.562;2024-01-30T04:44:00;7.60;86.10
27803;DHT22;15182;48.174;11.562;2024-01-30T04:46:28;7.60;85.20
27803;DHT22;15182;48.174;11.562;2024-01-30T04:48:56;7.60;85.20
27803;DHT22;15182;48.174;11.562;2024-01-30T04:51:23;7.60;86.10
27803;DHT22;15182;48.174;11.562;2024-01-30T04:53:51;7.50;85.30
27803;DHT22;15182;48.174;11.562;2024-01-30T04:56:19;7.60;85.30
27803;DHT22;15182;48.174;11.562;2024-01-30T04:58:48;7.60;85.30
27803;DHT22;15182;48.174;11.562;2024-01-30T05:01:16;7.60;85.30
27803;DHT22;15182;48.174;11.562;2024-01-30T05:03:44;7.60;85.30
27803;DHT22;15182;48.174;11.562;2024-01-30T05:06:12;7.50;85.20
27803;DHT22;15182;48.174;11.562;2024-01-30T05:08:40;7.60;85.30
27803;DHT22;15182;48.174;11.562;2024-01-30T05:11:08;7.50;85.30
27803;DHT22;15182;48.174;11.562;2024-01-30T05:13:37;7.50;85.30
27803;DHT22;15182;48.174;11.562;2024-01-30T05:16:06;7.50;85.30
27803;DHT22;15182;48.174;11.562;2024-01-30T05:18:34;7.50;85.40
27803;DHT22;15182;48.174;11.562;2024-01-30T05:21:02;7.50;85.30
27803;DHT22;15182;48.174;11.562;2024-01-30T05:23:30;7.50;85.40
27803;DHT22;15182;48.174;11.562;2024-01-30T05:25:59;7.50;85.30
27803;DHT22;15182;48.174;11.562;2024-01-30T05:28:27;7.50;85.40
27803;DHT22;15182;48.174;11.562;2024-01-30T05:30:55;7.50;85.40
27803;DHT22;15182;48.174;11.562;2024-01-30T05:33:24;7.40;85.50
27803;DHT22;15182;48.174;11.562;2024-01-30T05:35:52;7.50;85.60
27803;DHT22;15182;48.174;11.562;2024-01-30T05:38:20;7.40;85.40
27803;DHT22;15182;48.174;11.562;2024-01-30T05:40:48;7.40;85.50
27803;DHT22;15182;48.174;11.562;2024-01-30T05:43:16;7.40;85.50
27803;DHT22;15182;48.174;11.562;2024-01-30T05:45:44;7.40;85.50
27803;DHT22;15182;48.174;11.562;2024-01-30T05:48:11;7.40;85.50
27803;DHT22;15182;48.174;11.562;2024-01-30T05:50:41;7.40;85.50
27803;DHT22;15182;48.174;11.562;2024-01-30T05:53:08;7.40;85.60
27803;DHT22;15182;48.174;11.562;2024-01-30T05:55:36;7.40;85.60
27803;DHT22;15182;48.174;11.562;2024-01-30T05:58:04;7.30;85.50
27803;DHT22;15182;48.174;11.562;2024-01-30T06:00:32;7.30;85.50
27803;DHT22;15182;48.174;11.562;2024-01-30T06:03:00;7.40;86.40
27803;DHT22;15182;48.174;11.562;2024-01-30T06:05:27;7.40;85.60
27803;DHT22;15182;48.174;11.562;2024-01-30T06:07:56;7.40;85.60
27803;DHT22;15182;48.174;11.562;2024-01-30T06:10:24;7.30;85.60
27803;DHT22;15182;48.174;11.562;2024-01-30T06:12:52;7.30;85.60
27803;DHT22;15182;48.174;11.562;2024-01-30T06:15:20;7.30;85.60
27803;DHT22;15182;48.174;11.562;2024-01-30T06:17:47;7.30;86.40
27803;DHT22;15182;48.174;11.562;2024-01-30T06:20:16;7.30;85.60
27803;DHT22;15182;48.174;11.562;2024-01-30T06:22:44;7.30;85.60
27803;DHT22;15182;48.174;11.562;2024-01-30T06:25:13;7.30;85.60
27803;DHT22;15182;48.174;11.562;2024-01-30T06:27:42;7.30;85.70
27803;DHT22;15182;48.174;11.562;2024-01-30T06:30:11;7.30;85.60
27803;DHT22;15182;48.174;11.562;2024-01-30T06:32:39;7.20;85.60
27803;DHT22;15182;48.174;11.562;2024-01-30T06:35:07;7.20;85.60
27803;DHT22;15182;48.174;11.562;2024-01-30T06:37:36;7.30;85.70
27803;DHT22;15182;48.174;11.562;2024-01-30T06:40:06;7.20;85.70
27803;DHT22;15182;48.174;11.562;2024-01-30T06:42:36;7.20;85.80
27803;DHT22;15182;48.174;11.562;2024-01-30T06:45:04;7.20;85.80
27803;DHT22;15182;48.174;11.562;2024-01-30T06:47:32;7.20;85.80
27803;DHT22;15182;48.174;11.562;2024-01-30T06:50:00;7.20;85.80
27803;DHT22;15182;48.174;11.562;2024-01-30T06:52:28;7.20;85.80
27803;DHT22;15182;48.174;11.562;2024-01-30T06:54:56;7.20;85.90
27803;DHT22;15182;48.174;11.562;2024-01-30T06:57:23;7.20;85.90
27803;DHT22;15182;48.174;11.562;2024-01-30T06:59:58;7.20;85.90
27803;DHT22;15182;48.174;11.562;2024-01-30T07:02:26;7.20;86.90
27803;DHT22;15182;48.174;11.562;2024-01-30T07:04:53;7.20;85.90
27803;DHT22;15182;48.174;11.562;2024-01-30T07:07:21;7.20;86.00
27803;DHT22;15182;48.174;11.562;2024-01-30T07:09:48;7.20;86.00
27803;DHT22;15182;48.174;11.562;2024-01-30T07:12:18;7.20;86.00
27803;DHT22;15182;48.174;11.562;2024-01-30T07:14:46;7.20;86.00
27803;DHT22;15182;48.174;11.562;2024-01-30T07:17:16;7.20;86.00
27803;DHT22;15182;48.174;11.562;2024-01-30T07:19:43;7.20;86.10
27803;DHT22;15182;48.174;11.562;2024-01-30T07:22:11;7.20;86.10
27803;DHT22;15182;48.174;11.562;2024-01-30T07:24:42;7.20;86.10
27803;DHT22;15182;48.174;11.562;2024-01-30T07:27:13;7.20;86.20
27803;DHT22;15182;48.174;11.562;2024-01-30T07:29:42;7.20;86.20
27803;DHT22;15182;48.174;11.562;2024-01-30T07:32:10;7.30;86.30
27803;DHT22;15182;48.174;11.562;2024-01-30T07:34:39;7.30;86.40
27803;DHT22;15182;48.174;11.562;2024-01-30T07:37:07;7.30;86.40
27803;DHT22;15182;48.174;11.562;2024-01-30T07:39:36;7.30;86.40
27803;DHT22;15182;48.174;11.562;2024-01-30T07:42:04;7.30;86.40
27803;DHT22;15182;48.174;11.562;2024-01-30T07:44:32;7.30;86.50
27803;DHT22;15182;48.174;11.562;2024-01-30T07:46:59;7.30;86.50
27803;DHT22;15182;48.174;11.562;2024-01-30T07:49:27;7.30;86.50
27803;DHT22;15182;48.174;11.562;2024-01-30T07:51:56;7.40;86.60
27803;DHT22;15182;48.174;11.562;2024-01-30T07:54:24;7.40;86.70
27803;DHT22;15182;48.174;11.562;2024-01-30T07:56:52;7.40;86.60
27803;DHT22;15182;48.174;11.562;2024-01-30T07:59:20;7.40;86.70
27803;DHT22;15182;48.174;11.562;2024-01-30T08:01:50;7.40;86.80
27803;DHT22;15182;48.174;11.562;2024-01-30T08:04:18;7.40;86.80
27803;DHT22;15182;48.174;11.562;2024-01-30T08:06:46;7.50;86.90
27803;DHT22;15182;48.174;11.562;2024-01-30T08:09:15;7.50;86.90
27803;DHT22;15182;48.174;11.562;2024-01-30T08:11:43;7.50;86.90
27803;DHT22;15182;48.174;11.562;2024-01-30T08:14:11;7.50;86.90
27803;DHT22;15182;48.174;11.562;2024-01-30T08:16:40;7.60;86.90
27803;DHT22;15182;48.174;11.562;2024-01-30T08:19:07;7.60;87.00
27803;DHT22;15182;48.174;11.562;2024-01-30T08:21:35;7.60;86.90
27803;DHT22;15182;48.174;11.562;2024-01-30T08:24:03;7.70;87.70
27803;DHT22;15182;48.174;11.562;2024-01-30T08:26:33;7.70;86.90
27803;DHT22;15182;48.174;11.562;2024-01-30T08:29:02;7.70;86.90
27803;DHT22;15182;48.174;11.562;2024-01-30T08:31:29;7.80;86.80
27803;DHT22;15182;48.174;11.562;2024-01-30T08:33:57;7.80;86.80
27803;DHT22;15182;48.174;11.562;2024-01-30T08:36:25;7.90;86.70
27803;DHT22;15182;48.174;11.562;2024-01-30T08:38:53;7.90;86.60
27803;DHT22;15182;48.174;11.562;2024-01-30T08:41:20;7.90;86.50
27803;DHT22;15182;48.174;11.562;2024-01-30T08:43:50;8.00;86.40
27803;DHT22;15182;48.174;11.562;2024-01-30T08:46:18;8.00;86.30
27803;DHT22;15182;48.174;11.562;2024-01-30T08:48:46;8.10;86.20
27803;DHT22;15182;48.174;11.562;2024-01-30T08:51:14;8.20;86.20
27803;DHT22;15182;48.174;11.562;2024-01-30T08:53:42;8.20;86.20
27803;DHT22;15182;48.174;11.562;2024-01-30T08:56:10;8.30;87.10
27803;DHT22;15182;48.174;11.562;2024-01-30T08:58:38;8.40;86.20
27803;DHT22;15182;48.174;11.562;2024-01-30T09:01:07;8.40;86.20
27803;DHT22;15182;48.174;11.562;2024-01-30T09:03:35;8.50;86.10
27803;DHT22;15182;48.174;11.562;2024-01-30T09:06:08;8.60;85.70
27803;DHT22;15182;48.174;11.562;2024-01-30T09:08:36;8.70;85.50
27803;DHT22;15182;48.174;11.562;2024-01-30T09:11:08;8.80;85.50
27803;DHT22;15182;48.174;11.562;2024-01-30T09:13:37;8.90;85.30
27803;DHT22;15182;48.174;11.562;2024-01-30T09:16:07;9.00;85.20
27803;DHT22;15182;48.174;11.562;2024-01-30T09:18:34;9.20;85.20
27803;DHT22;15182;48.174;11.562;2024-01-30T09:21:02;9.30;85.00
27803;DHT22;15182;48.174;11.562;2024-01-30T09:23:30;9.40;84.80
27803;DHT22;15182;48.174;11.562;2024-01-30T09:25:58;9.50;84.90
27803;DHT22;15182;48.174;11.562;2024-01-30T09:28:26;9.70;84.90
27803;DHT22;15182;48.174;11.562;2024-01-30T09:30:54;9.80;85.60
27803;DHT22;15182;48.174;11.562;2024-01-30T09:33:23;9.90;84.70
27803;DHT22;15182;48.174;11.562;2024-01-30T09:35:51;10.00;84.40
27803;DHT22;15182;48.174;11.562;2024-01-30T09:38:19;10.20;84.30
27803;DHT22;15182;48.174;11.562;2024-01-30T09:40:53;10.30;84.60
27803;DHT22;15182;48.174;11.562;2024-01-30T09:43:23;10.50;84.20
27803;DHT22;15182;48.174;11.562;2024-01-30T09:45:51;10.70;84.00
27803;DHT22;15182;48.174;11.562;2024-01-30T09:48:19;10.80;84.20
27803;DHT22;15182;48.174;11.562;2024-01-30T09:50:48;11.00;84.20
27803;DHT22;15182;48.174;11.562;2024-01-30T09:53:16;11.10;84.10
27803;DHT22;15182;48.174;11.562;2024-01-30T09:55:44;11.30;83.80
27803;DHT22;15182;48.174;11.562;2024-01-30T09:58:13;11.50;83.60
27803;DHT22;15182;48.174;11.562;2024-01-30T10:00:41;11.60;83.10
27803;DHT22;15182;48.174;11.562;2024-01-30T10:03:09;11.80;83.00
27803;DHT22;15182;48.174;11.562;2024-01-30T10:05:36;12.00;82.70
27803;DHT22;15182;48.174;11.562;2024-01-30T10:08:08;12.10;82.50
27803;DHT22;15182;48.174;11.562;2024-01-30T10:10:35;12.30;82.30
27803;DHT22;15182;48.174;11.562;2024-01-30T10:13:03;12.40;82.20
27803;DHT22;15182;48.174;11.562;2024-01-30T10:15:31;12.60;81.80
27803;DHT22;15182;48.174;11.562;2024-01-30T10:18:01;12.70;82.40
27803;DHT22;15182;48.174;11.562;2024-01-30T10:20:30;12.90;80.80
27803;DHT22;15182;48.174;11.562;2024-01-30T10:22:57;13.10;80.90
27803;DHT22;15182;48.174;11.562;2024-01-30T10:25:27;13.20;80.50
27803;DHT22;15182;48.174;11.562;2024-01-30T10:27:55;13.40;79.90
27803;DHT22;15182;48.174;11.562;2024-01-30T10:30:24;13.60;79.90
27803;DHT22;15182;48.174;11.562;2024-01-30T10:32:52;13.70;79.20
27803;DHT22;15182;48.174;11.562;2024-01-30T10:35:20;13.90;79.20
27803;DHT22;15182;48.174;11.562;2024-01-30T10:37:48;14.00;79.00
27803;DHT22;15182;48.174;11.562;2024-01-30T10:40:16;14.10;78.50
27803;DHT22;15182;48.174;11.562;2024-01-30T10:42:46;14.20;78.10
27803;DHT22;15182;48.174;11.562;2024-01-30T10:45:14;14.30;77.10
27803;DHT22;15182;48.174;11.562;2024-01-30T10:47:44;14.40;77.10
27803;DHT22;15182;48.174;11.562;2024-01-30T10:50:16;14.50;76.40
27803;DHT22;15182;48.174;11.562;2024-01-30T10:52:45;14.70;76.30
27803;DHT22;15182;48.174;11.562;2024-01-30T10:55:14;14.80;75.90
27803;DHT22;15182;48.174;11.562;2024-01-30T10:57:45;15.00;75.90
27803;DHT22;15182;48.174;11.562;2024-01-30T11:00:14;15.20;74.90
27803;DHT22;15182;48.174;11.562;2024-01-30T11:02:44;15.30;74.10
27803;DHT22;15182;48.174;11.562;2024-01-30T11:05:13;15.50;73.20
27803;DHT22;15182;48.174;11.562;2024-01-30T11:07:42;15.60;73.40
27803;DHT22;15182;48.174;11.562;2024-01-30T11:10:10;15.70;72.90
27803;DHT22;15182;48.174;11.562;2024-01-30T11:12:41;15.90;73.00
27803;DHT22;15182;48.174;11.562;2024-01-30T11:15:13;16.00;72.80
27803;DHT22;15182;48.174;11.562;2024-01-30T11:17:45;16.20;71.40
27803;DHT22;15182;48.174;11.562;2024-01-30T11:20:20;16.40;71.80
27803;DHT22;15182;48.174;11.562;2024-01-30T11:22:51;16.50;71.50
27803;DHT22;15182;48.174;11.562;2024-01-30T11:25:20;16.60;71.00
27803;DHT22;15182;48.174;11.562;2024-01-30T11:27:50;16.80;71.10
27803;DHT22;15182;48.174;11.562;2024-01-30T11:30:24;16.90;71.00
27803;DHT22;15182;48.174;11.562;2024-01-30T11:33:00;17.00;70.30
27803;DHT22;15182;48.174;11.562;2024-01-30T11:35:32;17.20;69.40
27803;DHT22;15182;48.174;11.562;2024-01-30T11:38:01;17.30;70.20
27803;DHT22;15182;48.174;11.562;2024-01-30T11:40:29;17.50;69.90
27803;DHT22;15182;48.174;11.562;2024-01-30T11:42:59;17.60;69.30
27803;DHT22;15182;48.174;11.562;2024-01-30T11:45:30;17.70;69.20
27803;DHT22;15182;48.174;11.562;2024-01-30T11:47:58;17.80;68.80
27803;DHT22;15182;48.174;11.562;2024-01-30T11:50:26;17.80;68.90
27803;DHT22;15182;48.174;11.562;2024-01-30T11:52:55;17.80;68.90
27803;DHT22;15182;48.174;11.562;2024-01-30T11:55:24;17.80;68.60
27803;DHT22;15182;48.174;11.562;2024-01-30T11:57:55;17.80;68.30
27803;DHT22;15182;48.174;11.562;2024-01-30T12:00:23;17.80;67.80
27803;DHT22;15182;48.174;11.562;2024-01-30T12:02:53;17.70;68.10
27803;DHT22;15182;48.174;11.562;2024-01-30T12:05:23;17.70;67.40
27803;DHT22;15182;48.174;11.562;2024-01-30T12:07:51;17.60;67.70
27803;DHT22;15182;48.174;11.562;2024-01-30T12:10:19;17.50;67.60
27803;DHT22;15182;48.174;11.562;2024-01-30T12:12:48;17.50;69.00
27803;DHT22;15182;48.174;11.562;2024-01-30T12:15:18;17.30;68.40
27803;DHT22;15182;48.174;11.562;2024-01-30T12:17:49;17.30;68.20
27803;DHT22;15182;48.174;11.562;2024-01-30T12:20:19;17.20;68.10
27803;DHT22;15182;48.174;11.562;2024-01-30T12:22:49;17.20;68.00
27803;DHT22;15182;48.174;11.562;2024-01-30T12:25:20;17.00;68.10
27803;DHT22;15182;48.174;11.562;2024-01-30T12:27:50;16.90;67.90
27803;DHT22;15182;48.174;11.562;2024-01-30T12:30:19;16.90;68.20
27803;DHT22;15182;48.174;11.562;2024-01-30T12:32:49;16.70;67.70
27803;DHT22;15182;48.174;11.562;2024-01-30T12:35:20;16.60;67.40
27803;DHT22;15182;48.174;11.562;2024-01-30T12:37:49;16.60;67.30
27803;DHT22;15182;48.174;11.562;2024-01-30T12:40:17;16.50;67.50
27803;DHT22;15182;48.174;11.562;2024-01-30T12:42:46;16.40;68.60
27803;DHT22;15182;48.174;11.562;2024-01-30T12:45:16;16.30;67.40
27803;DHT22;15182;48.174;11.562;2024-01-30T12:47:46;16.20;67.40
27803;DHT22;15182;48.174;11.562;2024-01-30T12:50:14;16.10;67.70
27803;DHT22;15182;48.174;11.562;2024-01-30T12:52:45;16.10;68.30
27803;DHT22;15182;48.174;11.562;2024-01-30T12:55:13;16.00;67.70
27803;DHT22;15182;48.174;11.562;2024-01-30T12:57:41;16.00;67.80
27803;DHT22;15182;48.174;11.562;2024-01-30T13:00:09;15.90;68.40
27803;DHT22;15182;48.174;11.562;2024-01-30T13:02:38;15.90;68.50
27803;DHT22;15182;48.174;11.562;2024-01-30T13:05:06;15.90;68.00
27803;DHT22;15182;48.174;11.562;2024-01-30T13:07:34;15.90;67.80
27803;DHT22;15182;48.174;11.562;2024-01-30T13:10:04;15.80;67.90
27803;DHT22;15182;48.174;11.562;2024-01-30T13:12:32;15.80;67.90
27803;DHT22;15182;48.174;11.562;2024-01-30T13:15:01;15.80;68.60
27803;DHT22;15182;48.174;11.562;2024-01-30T13:17:30;15.80;68.70
27803;DHT22;15182;48.174;11.562;2024-01-30T13:19:58;15.80;69.00
27803;DHT22;15182;48.174;11.562;2024-01-30T13:22:26;15.80;68.50
27803;DHT22;15182;48.174;11.562;2024-01-30T13:24:54;15.80;68.40
27803;DHT22;15182;48.174;11.562;2024-01-30T13:27:23;15.80;67.80
27803;DHT22;15182;48.174;11.562;2024-01-30T13:29:51;15.70;67.30
27803;DHT22;15182;48.174;11.562;2024-01-30T13:32:19;15.70;67.90
27803;DHT22;15182;48.174;11.562;2024-01-30T13:34:46;15.60;68.00
27803;DHT22;15182;48.174;11.562;2024-01-30T13:37:14;15.70;68.40
27803;DHT22;15182;48.174;11.562;2024-01-30T13:39:42;15.60;67.50
27803;DHT22;15182;48.174;11.562;2024-01-30T13:42:10;15.60;68.10
27803;DHT22;15182;48.174;11.562;2024-01-30T13:44:39;15.60;67.50
27803;DHT22;15182;48.174;11.562;2024-01-30T13:47:07;15.50;67.00
27803;DHT22;15182;48.174;11.562;2024-01-30T13:49:34;15.50;67.30
27803;DHT22;15182;48.174;11.562;2024-01-30T13:52:01;15.50;67.50
27803;DHT22;15182;48.174;11.562;2024-01-30T13:54:29;15.50;68.40
27803;DHT22;15182;48.174;11.562;2024-01-30T13:56:58;15.50;67.70
27803;DHT22;15182;48.174;11.562;2024-01-30T13:59:25;15.40;67.70
27803;DHT22;15182;48.174;11.562;2024-01-30T14:01:55;15.40;68.60
27803;DHT22;15182;48.174;11.562;2024-01-30T14:04:22;15.40;67.60
27803;DHT22;15182;48.174;11.562;2024-01-30T14:06:50;15.40;68.10
27803;DHT22;15182;48.174;11.562;2024-01-30T14:09:18;15.40;68.20
27803;DHT22;15182;48.174;11.562;2024-01-30T14:11:47;15.30;68.10
27803;DHT22;15182;48.174;11.562;2024-01-30T14:14:15;15.30;68.20
27803;DHT22;15182;48.174;11.562;2024-01-30T14:16:42;15.30;68.40
27803;DHT22;15182;48.174;11.562;2024-01-30T14:19:12;15.30;68.60
27803;DHT22;15182;48.174;11.562;2024-01-30T14:21:39;15.30;68.60
27803;DHT22;15182;48.174;11.562;2024-01-30T14:24:07;15.20;68.70
27803;DHT22;15182;48.174;11.562;2024-01-30T14:26:35;15.20;68.80
27803;DHT22;15182;48.174;11.562;2024-01-30T14:29:04;15.20;69.00
27803;DHT22;15182;48.174;11.562;2024-01-30T14:31:32;15.20;69.20
27803;DHT22;15182;48.174;11.562;2024-01-30T14:33:59;15.20;69.40
27803;DHT22;15182;48.174;11.562;2024-01-30T14:36:28;15.10;69.50
27803;DHT22;15182;48.174;11.562;2024-01-30T14:38:56;15.10;69.70
27803;DHT22;15182;48.174;11.562;2024-01-30T14:41:24;15.10;70.10
27803;DHT22;15182;48.174;11.562;2024-01-30T14:43:52;15.10;70.00
27803;DHT22;15182;48.174;11.562;2024-01-30T14:46:20;15.00;70.20
27803;DHT22;15182;48.174;11.562;2024-01-30T14:48:48;15.00;70.10
27803;DHT22;15182;48.174;11.562;2024-01-30T14:51:17;15.00;70.10
27803;DHT22;15182;48.174;11.562;2024-01-30T14:53:46;15.00;70.30
27803;DHT22;15182;48.174;11.562;2024-01-30T14:56:14;15.00;70.40
27803;DHT22;15182;48.174;11.562;2024-01-30T14:58:42;14.90;70.50
27803;DHT22;15182;48.174;11.562;2024-01-30T15:01:10;14.90;70.50
27803;DHT22;15182;48.174;11.562;2024-01-30T15:03:38;14.90;70.70
27803;DHT22;15182;48.174;11.562;2024-01-30T15:06:06;14.90;70.90
27803;DHT22;15182;48.174;11.562;2024-01-30T15:08:35;14.80;71.10
27803;DHT22;15182;48.174;11.562;2024-01-30T15:11:04;14.90;71.20
27803;DHT22;15182;48.174;11.562;2024-01-30T15:13:32;14.80;71.20
27803;DHT22;15182;48.174;11.562;2024-01-30T15:16:00;14.80;71.10
27803;DHT22;15182;48.174;11.562;2024-01-30T15:18:29;14.80;71.20
27803;DHT22;15182;48.174;11.562;2024-01-30T15:20:57;14.80;71.30
27803;DHT22;15182;48.174;11.562;2024-01-30T15:23:25;14.70;71.50
27803;DHT22;15182;48.174;11.562;2024-01-30T15:25:52;14.70;71.40
27803;DHT22;15182;48.174;11.562;2024-01-30T15:28:33;14.70;71.70
27803;DHT22;15182;48.174;11.562;2024-01-30T15:31:02;14.70;72.10
27803;DHT22;15182;48.174;11.562;2024-01-30T15:33:30;14.70;72.10